Terminal Aerodrome Forecast
Issued by NWS

Home | Current Version | Previous Version | Text Only | Print | Product List | Glossary On
Versions: 1 2 3 4 5 6 7 8 9 10 11 12 13
000
FTUS43 KGLD 291720
TAFMCK
TAF
KMCK 291720Z 2918/3018 07015G25KT P6SM VCSH OVC020
     FM292000 06015G25KT 4SM -RA OVC007
     FM300300 36015G25KT 3SM -RA OVC007=

USA.gov is the U.S. government's official web portal to all federal, state and local government web resources and services.